Portada
METAR-TAF:

METAR-TAF

Aeropuertos :

Halmstad, Suecia

latitud: 56-41N, longitud: 012-50E, altitud: 30 m

Observación

El informe se hizo hace 33 minutos, a las 05:50 UTC
Viento 3 kt del este
Temperatura -5°C
Humedad 86%
Presión 998 hPa
Visibilidad 10 km o más

METAR: ESMT 270550Z 08003KT 9999 NSC M05/M07 Q0998

Hora: 07:23 (06:23 UTC)

Pronóstico

El informe se hizo hace 1 hora y 22 minutos, a las 05:01 UTC
Pronóstico válido del 27 a las 06 UTC al 27 a las 15 UTC
Viento 3 kt del este-noreste
Visibilidad 10 km o más
Nubes dispersas a una altura de 2500 ft

TAF: ESMT 270501Z 2706/2715 07003KT 9999 SCT025

Observaciones y pronósticos meteorológicos de más de 4000 aeropuertos (mensajes METAR y TAF).

Los puntos amarillos y rojos representan las estaciones disponibles.

Ponga el ratón en el punto deseado para ver el nombre de la estación.

Haga clic para ver las observaciones y los pronósticos meteorológicos.

Para cambiar el mapa : haga clic en los botones verdes con una cruz de color negro para hacer un zoom, en el botón verde con un guión para alejar o en las flechas verdes para mapas adyacentes.


METAR-TAF: